Jackson Hole (JAC/KJAC)

Map

Information

Location
Jackson Hole, WY
Local Time
21:46 / 9:46 pm
GMT Time
03:46 / 3:46 am
Gates
A4
No FAA reported delays
METAR KJAC 170256Z AUTO 16005KT 10SM CLR 16/01 A3016 RMK AO2 SLP178 T01560006 53004
TAF KJAC 162321Z 1700/1724 21007KT P6SM SCT070 BKN150 FM170300 VRB04KT P6SM SCT090 FM171900 21010KT P6SM FEW090 AMD LTD TO CLD VIS AND WIND